Terminal Aerodrome Forecast
Issued by NWS Grand Junction, CO

Home | Current Version | Previous Version | Text Only | Print | Product List | Glossary On
Versions: 1 2 3 4 5 6 7 8 9 10 11 12 13 14 15 16 17 18 19 20 21 22 23 24 25 26 27 28 29 30 31 32 33 34 35
000
FTUS45 KGJT 222330
TAFGJT
TAF
KGJT 222330Z 2300/2324 29008KT P6SM SKC
     FM230300 04005KT P6SM SKC
     FM230700 12010KT P6SM SCT200
     FM231500 VRB03KT P6SM FEW120
     FM232000 34008KT P6SM VCSH SCT070 BKN150=

USA.gov is the U.S. government's official web portal to all federal, state and local government web resources and services.